sensor_id;sensor_type;location;lat;lon;timestamp;P1;durP1;ratioP1;P2;durP2;ratioP2
19599;SDS011;9947;57.722;12.012;2022-08-03T00:02:26;31.57;;;14.87;;
19599;SDS011;9947;57.722;12.012;2022-08-03T00:04:54;32.03;;;15.83;;
19599;SDS011;9947;57.722;12.012;2022-08-03T00:07:21;27.43;;;14.37;;
19599;SDS011;9947;57.722;12.012;2022-08-03T00:09:51;32.23;;;15.83;;
19599;SDS011;9947;57.722;12.012;2022-08-03T00:12:19;36.90;;;15.37;;
19599;SDS011;9947;57.722;12.012;2022-08-03T00:14:55;32.70;;;16.33;;
19599;SDS011;9947;57.722;12.012;2022-08-03T00:17:24;26.27;;;15.60;;
19599;SDS011;9947;57.722;12.012;2022-08-03T00:19:55;24.77;;;16.00;;
19599;SDS011;9947;57.722;12.012;2022-08-03T00:22:22;31.53;;;15.97;;
19599;SDS011;9947;57.722;12.012;2022-08-03T00:24:51;29.30;;;15.40;;
19599;SDS011;9947;57.722;12.012;2022-08-03T00:30:42;27.37;;;15.50;;
19599;SDS011;9947;57.722;12.012;2022-08-03T00:33:21;27.47;;;13.73;;
19599;SDS011;9947;57.722;12.012;2022-08-03T00:36:15;20.23;;;12.97;;
19599;SDS011;9947;57.722;12.012;2022-08-03T00:39:43;22.63;;;13.30;;
19599;SDS011;9947;57.722;12.012;2022-08-03T00:42:24;27.27;;;13.13;;
19599;SDS011;9947;57.722;12.012;2022-08-03T00:45:06;27.83;;;12.10;;
19599;SDS011;9947;57.722;12.012;2022-08-03T00:47:56;26.67;;;11.80;;
19599;SDS011;9947;57.722;12.012;2022-08-03T00:50:23;20.97;;;11.70;;
19599;SDS011;9947;57.722;12.012;2022-08-03T00:53:03;27.03;;;13.03;;
19599;SDS011;9947;57.722;12.012;2022-08-03T00:55:38;22.33;;;12.87;;
19599;SDS011;9947;57.722;12.012;2022-08-03T00:58:13;23.80;;;13.73;;
19599;SDS011;9947;57.722;12.012;2022-08-03T01:06:51;22.37;;;13.90;;
19599;SDS011;9947;57.722;12.012;2022-08-03T01:09:25;26.07;;;13.40;;
19599;SDS011;9947;57.722;12.012;2022-08-03T01:12:09;30.07;;;13.73;;
19599;SDS011;9947;57.722;12.012;2022-08-03T01:18:13;21.07;;;12.73;;
19599;SDS011;9947;57.722;12.012;2022-08-03T01:20:46;23.37;;;12.60;;
19599;SDS011;9947;57.722;12.012;2022-08-03T01:23:26;20.47;;;12.30;;
19599;SDS011;9947;57.722;12.012;2022-08-03T01:26:07;19.17;;;12.23;;
19599;SDS011;9947;57.722;12.012;2022-08-03T01:28:53;20.03;;;12.20;;
19599;SDS011;9947;57.722;12.012;2022-08-03T01:44:56;23.73;;;13.10;;
19599;SDS011;9947;57.722;12.012;2022-08-03T01:47:38;22.33;;;12.33;;
19599;SDS011;9947;57.722;12.012;2022-08-03T01:50:08;25.90;;;12.47;;
19599;SDS011;9947;57.722;12.012;2022-08-03T01:52:46;26.30;;;12.10;;
19599;SDS011;9947;57.722;12.012;2022-08-03T01:55:19;26.03;;;12.13;;
19599;SDS011;9947;57.722;12.012;2022-08-03T01:58:02;26.90;;;12.40;;
19599;SDS011;9947;57.722;12.012;2022-08-03T02:00:54;23.40;;;11.40;;
19599;SDS011;9947;57.722;12.012;2022-08-03T02:03:38;24.53;;;12.07;;
19599;SDS011;9947;57.722;12.012;2022-08-03T02:06:08;22.10;;;11.87;;
19599;SDS011;9947;57.722;12.012;2022-08-03T02:08:37;20.83;;;11.10;;
19599;SDS011;9947;57.722;12.012;2022-08-03T02:11:09;19.60;;;10.43;;
19599;SDS011;9947;57.722;12.012;2022-08-03T02:13:37;21.17;;;10.60;;
19599;SDS011;9947;57.722;12.012;2022-08-03T02:16:07;18.93;;;10.13;;
19599;SDS011;9947;57.722;12.012;2022-08-03T02:18:35;20.90;;;10.53;;
19599;SDS011;9947;57.722;12.012;2022-08-03T02:22:07;19.80;;;10.33;;
19599;SDS011;9947;57.722;12.012;2022-08-03T02:24:27;22.43;;;9.50;;
19599;SDS011;9947;57.722;12.012;2022-08-03T02:26:56;23.00;;;11.30;;
19599;SDS011;9947;57.722;12.012;2022-08-03T02:29:26;23.90;;;11.97;;
19599;SDS011;9947;57.722;12.012;2022-08-03T02:31:58;24.13;;;13.20;;
19599;SDS011;9947;57.722;12.012;2022-08-03T02:34:28;24.27;;;12.00;;
19599;SDS011;9947;57.722;12.012;2022-08-03T02:37:00;26.30;;;12.20;;
19599;SDS011;9947;57.722;12.012;2022-08-03T02:39:30;28.37;;;12.10;;
19599;SDS011;9947;57.722;12.012;2022-08-03T02:42:05;28.37;;;13.37;;
19599;SDS011;9947;57.722;12.012;2022-08-03T02:44:34;31.23;;;13.20;;
19599;SDS011;9947;57.722;12.012;2022-08-03T02:47:05;30.03;;;14.10;;
19599;SDS011;9947;57.722;12.012;2022-08-03T02:49:35;34.23;;;15.00;;
19599;SDS011;9947;57.722;12.012;2022-08-03T02:52:04;31.60;;;14.00;;
19599;SDS011;9947;57.722;12.012;2022-08-03T02:54:36;30.63;;;14.43;;
19599;SDS011;9947;57.722;12.012;2022-08-03T02:57:04;30.63;;;14.53;;
19599;SDS011;9947;57.722;12.012;2022-08-03T02:59:33;33.13;;;14.40;;
19599;SDS011;9947;57.722;12.012;2022-08-03T03:02:05;30.30;;;14.80;;
19599;SDS011;9947;57.722;12.012;2022-08-03T03:34:44;39.17;;;15.67;;
19599;SDS011;9947;57.722;12.012;2022-08-03T03:37:33;39.03;;;18.00;;
19599;SDS011;9947;57.722;12.012;2022-08-03T03:40:21;39.10;;;17.87;;
19599;SDS011;9947;57.722;12.012;2022-08-03T03:43:14;46.07;;;18.33;;
19599;SDS011;9947;57.722;12.012;2022-08-03T03:45:42;43.57;;;18.13;;
19599;SDS011;9947;57.722;12.012;2022-08-03T03:48:25;39.67;;;17.53;;
19599;SDS011;9947;57.722;12.012;2022-08-03T03:51:11;38.20;;;17.17;;
19599;SDS011;9947;57.722;12.012;2022-08-03T03:53:38;33.07;;;15.67;;
19599;SDS011;9947;57.722;12.012;2022-08-03T03:56:09;34.10;;;14.63;;
19599;SDS011;9947;57.722;12.012;2022-08-03T04:01:32;22.27;;;11.27;;
19599;SDS011;9947;57.722;12.012;2022-08-03T04:04:02;19.30;;;11.23;;
19599;SDS011;9947;57.722;12.012;2022-08-03T04:06:44;18.60;;;10.70;;
19599;SDS011;9947;57.722;12.012;2022-08-03T04:12:15;17.63;;;9.47;;
19599;SDS011;9947;57.722;12.012;2022-08-03T04:14:43;14.70;;;7.97;;
19599;SDS011;9947;57.722;12.012;2022-08-03T04:17:24;15.53;;;8.17;;
19599;SDS011;9947;57.722;12.012;2022-08-03T04:21:23;14.27;;;8.33;;
19599;SDS011;9947;57.722;12.012;2022-08-03T04:33:17;17.57;;;9.30;;
19599;SDS011;9947;57.722;12.012;2022-08-03T04:36:03;17.87;;;11.43;;
19599;SDS011;9947;57.722;12.012;2022-08-03T04:38:52;25.77;;;12.73;;
19599;SDS011;9947;57.722;12.012;2022-08-03T04:48:40;31.70;;;15.60;;
19599;SDS011;9947;57.722;12.012;2022-08-03T05:03:24;30.33;;;15.63;;
19599;SDS011;9947;57.722;12.012;2022-08-03T05:10:20;30.63;;;15.63;;
19599;SDS011;9947;57.722;12.012;2022-08-03T05:12:50;28.03;;;15.63;;
19599;SDS011;9947;57.722;12.012;2022-08-03T05:15:18;29.07;;;16.10;;
19599;SDS011;9947;57.722;12.012;2022-08-03T05:17:44;31.57;;;16.57;;
19599;SDS011;9947;57.722;12.012;2022-08-03T05:20:11;37.50;;;16.50;;
19599;SDS011;9947;57.722;12.012;2022-08-03T05:22:38;32.03;;;16.20;;
19599;SDS011;9947;57.722;12.012;2022-08-03T05:25:08;27.63;;;15.77;;
19599;SDS011;9947;57.722;12.012;2022-08-03T05:27:36;32.53;;;15.67;;
19599;SDS011;9947;57.722;12.012;2022-08-03T05:30:03;32.07;;;16.17;;
19599;SDS011;9947;57.722;12.012;2022-08-03T05:36:24;35.10;;;15.33;;
19599;SDS011;9947;57.722;12.012;2022-08-03T05:39:22;32.43;;;14.43;;
19599;SDS011;9947;57.722;12.012;2022-08-03T05:42:17;29.17;;;14.50;;
19599;SDS011;9947;57.722;12.012;2022-08-03T05:47:53;38.83;;;14.80;;
19599;SDS011;9947;57.722;12.012;2022-08-03T05:51:13;36.23;;;14.63;;
19599;SDS011;9947;57.722;12.012;2022-08-03T05:53:43;25.70;;;13.43;;
19599;SDS011;9947;57.722;12.012;2022-08-03T05:59:02;28.10;;;13.73;;
19599;SDS011;9947;57.722;12.012;2022-08-03T06:02:01;22.87;;;12.43;;
19599;SDS011;9947;57.722;12.012;2022-08-03T06:08:32;22.10;;;12.40;;
19599;SDS011;9947;57.722;12.012;2022-08-03T06:11:27;30.10;;;13.00;;
19599;SDS011;9947;57.722;12.012;2022-08-03T06:14:42;25.80;;;12.70;;
19599;SDS011;9947;57.722;12.012;2022-08-03T06:31:32;26.13;;;11.23;;
19599;SDS011;9947;57.722;12.012;2022-08-03T06:34:00;22.63;;;10.30;;
19599;SDS011;9947;57.722;12.012;2022-08-03T06:36:30;24.97;;;10.80;;
19599;SDS011;9947;57.722;12.012;2022-08-03T06:39:00;21.73;;;9.50;;
19599;SDS011;9947;57.722;12.012;2022-08-03T06:41:37;21.90;;;9.17;;
19599;SDS011;9947;57.722;12.012;2022-08-03T06:44:04;22.73;;;9.03;;
19599;SDS011;9947;57.722;12.012;2022-08-03T06:46:35;23.47;;;9.50;;
19599;SDS011;9947;57.722;12.012;2022-08-03T06:49:02;21.33;;;8.37;;
19599;SDS011;9947;57.722;12.012;2022-08-03T06:51:28;21.37;;;8.40;;
19599;SDS011;9947;57.722;12.012;2022-08-03T06:53:55;19.67;;;7.60;;
19599;SDS011;9947;57.722;12.012;2022-08-03T06:56:23;15.00;;;7.37;;
19599;SDS011;9947;57.722;12.012;2022-08-03T06:58:56;20.70;;;8.23;;
19599;SDS011;9947;57.722;12.012;2022-08-03T07:01:23;17.10;;;7.75;;
19599;SDS011;9947;57.722;12.012;2022-08-03T07:03:53;16.93;;;7.47;;
19599;SDS011;9947;57.722;12.012;2022-08-03T07:06:22;14.70;;;7.30;;
19599;SDS011;9947;57.722;12.012;2022-08-03T07:08:55;12.43;;;7.30;;
19599;SDS011;9947;57.722;12.012;2022-08-03T07:11:27;20.73;;;7.40;;
19599;SDS011;9947;57.722;12.012;2022-08-03T07:13:57;16.10;;;7.23;;
19599;SDS011;9947;57.722;12.012;2022-08-03T07:16:36;16.90;;;7.13;;
19599;SDS011;9947;57.722;12.012;2022-08-03T07:19:04;22.33;;;7.50;;
19599;SDS011;9947;57.722;12.012;2022-08-03T07:21:34;17.67;;;7.47;;
19599;SDS011;9947;57.722;12.012;2022-08-03T07:24:01;14.90;;;7.20;;
19599;SDS011;9947;57.722;12.012;2022-08-03T07:26:29;24.20;;;8.33;;
19599;SDS011;9947;57.722;12.012;2022-08-03T07:28:58;16.00;;;6.80;;
19599;SDS011;9947;57.722;12.012;2022-08-03T07:31:25;18.37;;;7.07;;
19599;SDS011;9947;57.722;12.012;2022-08-03T07:33:59;17.70;;;7.70;;
19599;SDS011;9947;57.722;12.012;2022-08-03T07:36:27;18.03;;;7.90;;
19599;SDS011;9947;57.722;12.012;2022-08-03T07:38:54;19.80;;;7.90;;
19599;SDS011;9947;57.722;12.012;2022-08-03T07:41:22;18.07;;;6.77;;
19599;SDS011;9947;57.722;12.012;2022-08-03T07:43:49;14.37;;;7.03;;
19599;SDS011;9947;57.722;12.012;2022-08-03T07:46:16;15.57;;;6.90;;
19599;SDS011;9947;57.722;12.012;2022-08-03T07:48:42;13.53;;;7.77;;
19599;SDS011;9947;57.722;12.012;2022-08-03T07:51:10;18.23;;;7.90;;
19599;SDS011;9947;57.722;12.012;2022-08-03T07:53:38;16.10;;;7.93;;
19599;SDS011;9947;57.722;12.012;2022-08-03T07:56:05;17.47;;;8.47;;
19599;SDS011;9947;57.722;12.012;2022-08-03T07:58:36;15.13;;;8.03;;
19599;SDS011;9947;57.722;12.012;2022-08-03T08:01:06;22.43;;;8.53;;
19599;SDS011;9947;57.722;12.012;2022-08-03T08:03:50;18.50;;;8.60;;
19599;SDS011;9947;57.722;12.012;2022-08-03T08:06:31;21.37;;;8.63;;
19599;SDS011;9947;57.722;12.012;2022-08-03T08:09:02;16.70;;;8.90;;
19599;SDS011;9947;57.722;12.012;2022-08-03T08:11:43;15.60;;;8.40;;
19599;SDS011;9947;57.722;12.012;2022-08-03T08:14:19;15.03;;;7.90;;
19599;SDS011;9947;57.722;12.012;2022-08-03T08:16:51;18.50;;;7.97;;
19599;SDS011;9947;57.722;12.012;2022-08-03T08:25:45;13.97;;;7.03;;
19599;SDS011;9947;57.722;12.012;2022-08-03T08:32:12;14.47;;;7.27;;
19599;SDS011;9947;57.722;12.012;2022-08-03T08:34:40;14.00;;;7.07;;
19599;SDS011;9947;57.722;12.012;2022-08-03T08:37:07;13.87;;;6.77;;
19599;SDS011;9947;57.722;12.012;2022-08-03T08:39:34;16.37;;;6.53;;
19599;SDS011;9947;57.722;12.012;2022-08-03T08:42:02;16.53;;;6.50;;
19599;SDS011;9947;57.722;12.012;2022-08-03T08:44:32;12.68;;;5.95;;
19599;SDS011;9947;57.722;12.012;2022-08-03T08:46:59;15.02;;;6.75;;
19599;SDS011;9947;57.722;12.012;2022-08-03T08:49:28;11.93;;;5.93;;
19599;SDS011;9947;57.722;12.012;2022-08-03T08:51:58;13.95;;;5.70;;
19599;SDS011;9947;57.722;12.012;2022-08-03T08:54:31;11.90;;;5.30;;
19599;SDS011;9947;57.722;12.012;2022-08-03T08:57:08;17.73;;;5.68;;
19599;SDS011;9947;57.722;12.012;2022-08-03T08:59:43;12.35;;;6.03;;
19599;SDS011;9947;57.722;12.012;2022-08-03T09:02:20;10.80;;;5.72;;
19599;SDS011;9947;57.722;12.012;2022-08-03T09:04:48;17.38;;;6.90;;
19599;SDS011;9947;57.722;12.012;2022-08-03T09:08:03;12.43;;;5.30;;
19599;SDS011;9947;57.722;12.012;2022-08-03T09:10:25;11.55;;;5.20;;
19599;SDS011;9947;57.722;12.012;2022-08-03T09:16:09;14.65;;;5.75;;
19599;SDS011;9947;57.722;12.012;2022-08-03T09:18:45;11.02;;;5.93;;
19599;SDS011;9947;57.722;12.012;2022-08-03T09:21:27;11.27;;;6.10;;
19599;SDS011;9947;57.722;12.012;2022-08-03T09:23:55;18.00;;;5.97;;
19599;SDS011;9947;57.722;12.012;2022-08-03T09:26:26;13.02;;;5.95;;
19599;SDS011;9947;57.722;12.012;2022-08-03T09:29:01;11.98;;;6.00;;
19599;SDS011;9947;57.722;12.012;2022-08-03T09:31:36;13.98;;;5.75;;
19599;SDS011;9947;57.722;12.012;2022-08-03T09:34:13;13.32;;;5.80;;
19599;SDS011;9947;57.722;12.012;2022-08-03T09:36:43;14.68;;;5.82;;
19599;SDS011;9947;57.722;12.012;2022-08-03T09:46:24;10.40;;;5.90;;
19599;SDS011;9947;57.722;12.012;2022-08-03T09:49:09;11.03;;;5.70;;
19599;SDS011;9947;57.722;12.012;2022-08-03T09:51:47;17.08;;;5.57;;
19599;SDS011;9947;57.722;12.012;2022-08-03T09:54:24;10.77;;;5.20;;
19599;SDS011;9947;57.722;12.012;2022-08-03T09:56:58;20.30;;;6.57;;
19599;SDS011;9947;57.722;12.012;2022-08-03T09:59:25;12.85;;;5.47;;
19599;SDS011;9947;57.722;12.012;2022-08-03T10:02:08;14.10;;;5.72;;
19599;SDS011;9947;57.722;12.012;2022-08-03T10:05:30;13.13;;;6.00;;
19599;SDS011;9947;57.722;12.012;2022-08-03T10:08:09;13.00;;;5.45;;
19599;SDS011;9947;57.722;12.012;2022-08-03T10:14:28;16.70;;;6.15;;
19599;SDS011;9947;57.722;12.012;2022-08-03T10:20:30;12.13;;;5.82;;
19599;SDS011;9947;57.722;12.012;2022-08-03T10:23:03;16.67;;;6.00;;
19599;SDS011;9947;57.722;12.012;2022-08-03T10:25:35;8.52;;;5.35;;
19599;SDS011;9947;57.722;12.012;2022-08-03T10:28:17;10.73;;;6.22;;
19599;SDS011;9947;57.722;12.012;2022-08-03T10:30:50;16.40;;;6.35;;
19599;SDS011;9947;57.722;12.012;2022-08-03T10:40:31;15.95;;;6.82;;
19599;SDS011;9947;57.722;12.012;2022-08-03T10:43:25;18.00;;;7.13;;
19599;SDS011;9947;57.722;12.012;2022-08-03T10:45:58;15.00;;;6.70;;
19599;SDS011;9947;57.722;12.012;2022-08-03T10:48:28;13.13;;;6.35;;
19599;SDS011;9947;57.722;12.012;2022-08-03T10:51:00;16.73;;;7.05;;
19599;SDS011;9947;57.722;12.012;2022-08-03T10:53:36;12.13;;;6.55;;
19599;SDS011;9947;57.722;12.012;2022-08-03T10:59:18;9.88;;;6.20;;
19599;SDS011;9947;57.722;12.012;2022-08-03T11:02:00;14.25;;;6.88;;
19599;SDS011;9947;57.722;12.012;2022-08-03T11:04:33;16.23;;;7.63;;
19599;SDS011;9947;57.722;12.012;2022-08-03T11:07:21;16.00;;;7.88;;
19599;SDS011;9947;57.722;12.012;2022-08-03T11:09:51;11.80;;;8.07;;
19599;SDS011;9947;57.722;12.012;2022-08-03T11:12:20;12.63;;;8.27;;
19599;SDS011;9947;57.722;12.012;2022-08-03T11:14:48;16.73;;;9.10;;
19599;SDS011;9947;57.722;12.012;2022-08-03T11:17:15;17.05;;;9.15;;
19599;SDS011;9947;57.722;12.012;2022-08-03T11:19:44;19.70;;;9.05;;
19599;SDS011;9947;57.722;12.012;2022-08-03T11:22:14;13.45;;;8.02;;
19599;SDS011;9947;57.722;12.012;2022-08-03T11:24:59;16.65;;;8.30;;
19599;SDS011;9947;57.722;12.012;2022-08-03T11:27:27;19.02;;;8.35;;
19599;SDS011;9947;57.722;12.012;2022-08-03T11:29:57;16.48;;;8.13;;
19599;SDS011;9947;57.722;12.012;2022-08-03T11:35:18;17.00;;;7.82;;
19599;SDS011;9947;57.722;12.012;2022-08-03T11:40:33;14.65;;;7.07;;
19599;SDS011;9947;57.722;12.012;2022-08-03T11:43:02;16.10;;;7.90;;
19599;SDS011;9947;57.722;12.012;2022-08-03T11:45:31;17.45;;;7.28;;
19599;SDS011;9947;57.722;12.012;2022-08-03T11:47:59;14.30;;;6.32;;
19599;SDS011;9947;57.722;12.012;2022-08-03T11:50:38;16.90;;;6.78;;
19599;SDS011;9947;57.722;12.012;2022-08-03T11:53:06;11.98;;;6.43;;
19599;SDS011;9947;57.722;12.012;2022-08-03T11:55:40;13.77;;;6.25;;
19599;SDS011;9947;57.722;12.012;2022-08-03T11:58:13;18.02;;;6.88;;
19599;SDS011;9947;57.722;12.012;2022-08-03T12:00:41;16.52;;;7.35;;
19599;SDS011;9947;57.722;12.012;2022-08-03T12:03:09;14.30;;;6.60;;
19599;SDS011;9947;57.722;12.012;2022-08-03T12:05:49;13.68;;;6.85;;
19599;SDS011;9947;57.722;12.012;2022-08-03T12:08:30;15.52;;;6.43;;
19599;SDS011;9947;57.722;12.012;2022-08-03T12:11:02;13.55;;;6.78;;
19599;SDS011;9947;57.722;12.012;2022-08-03T12:13:38;14.55;;;6.13;;
19599;SDS011;9947;57.722;12.012;2022-08-03T12:16:09;11.20;;;5.97;;
19599;SDS011;9947;57.722;12.012;2022-08-03T12:18:42;17.13;;;6.40;;
19599;SDS011;9947;57.722;12.012;2022-08-03T12:21:22;16.55;;;7.05;;
19599;SDS011;9947;57.722;12.012;2022-08-03T12:23:49;15.98;;;6.60;;
19599;SDS011;9947;57.722;12.012;2022-08-03T12:26:22;13.07;;;6.03;;
19599;SDS011;9947;57.722;12.012;2022-08-03T12:28:49;15.20;;;6.55;;
19599;SDS011;9947;57.722;12.012;2022-08-03T12:31:21;14.75;;;5.90;;
19599;SDS011;9947;57.722;12.012;2022-08-03T12:33:55;12.80;;;6.22;;
19599;SDS011;9947;57.722;12.012;2022-08-03T12:36:27;12.68;;;5.82;;
19599;SDS011;9947;57.722;12.012;2022-08-03T12:38:55;12.68;;;6.15;;
19599;SDS011;9947;57.722;12.012;2022-08-03T12:41:28;15.43;;;5.85;;
19599;SDS011;9947;57.722;12.012;2022-08-03T12:43:59;8.73;;;5.43;;
19599;SDS011;9947;57.722;12.012;2022-08-03T12:46:29;15.10;;;6.30;;
19599;SDS011;9947;57.722;12.012;2022-08-03T12:54:30;15.35;;;5.53;;
19599;SDS011;9947;57.722;12.012;2022-08-03T12:57:01;15.18;;;5.60;;
19599;SDS011;9947;57.722;12.012;2022-08-03T12:59:30;10.55;;;5.68;;
19599;SDS011;9947;57.722;12.012;2022-08-03T13:01:58;11.65;;;5.90;;
19599;SDS011;9947;57.722;12.012;2022-08-03T13:04:29;11.07;;;5.40;;
19599;SDS011;9947;57.722;12.012;2022-08-03T13:06:59;14.70;;;5.80;;
19599;SDS011;9947;57.722;12.012;2022-08-03T13:09:39;9.77;;;5.45;;
19599;SDS011;9947;57.722;12.012;2022-08-03T13:12:17;13.13;;;5.40;;
19599;SDS011;9947;57.722;12.012;2022-08-03T13:14:46;15.00;;;5.75;;
19599;SDS011;9947;57.722;12.012;2022-08-03T13:17:14;11.80;;;5.57;;
19599;SDS011;9947;57.722;12.012;2022-08-03T13:19:43;13.07;;;5.60;;
19599;SDS011;9947;57.722;12.012;2022-08-03T13:22:15;13.05;;;5.70;;
19599;SDS011;9947;57.722;12.012;2022-08-03T13:24:44;11.85;;;5.72;;
19599;SDS011;9947;57.722;12.012;2022-08-03T13:27:14;12.02;;;5.13;;
19599;SDS011;9947;57.722;12.012;2022-08-03T13:29:41;14.35;;;5.05;;
19599;SDS011;9947;57.722;12.012;2022-08-03T13:32:08;14.20;;;5.20;;
19599;SDS011;9947;57.722;12.012;2022-08-03T13:34:35;14.02;;;5.43;;
19599;SDS011;9947;57.722;12.012;2022-08-03T13:37:05;14.95;;;5.25;;
19599;SDS011;9947;57.722;12.012;2022-08-03T13:39:32;11.82;;;5.63;;
19599;SDS011;9947;57.722;12.012;2022-08-03T13:42:01;17.23;;;5.10;;
19599;SDS011;9947;57.722;12.012;2022-08-03T13:44:29;8.57;;;4.07;;
19599;SDS011;9947;57.722;12.012;2022-08-03T13:46:56;11.93;;;4.95;;
19599;SDS011;9947;57.722;12.012;2022-08-03T13:49:26;10.48;;;4.75;;
19599;SDS011;9947;57.722;12.012;2022-08-03T13:52:03;19.02;;;4.85;;
19599;SDS011;9947;57.722;12.012;2022-08-03T13:54:30;10.48;;;4.70;;
19599;SDS011;9947;57.722;12.012;2022-08-03T13:57:07;13.27;;;5.00;;
19599;SDS011;9947;57.722;12.012;2022-08-03T13:59:37;14.55;;;4.90;;
19599;SDS011;9947;57.722;12.012;2022-08-03T14:02:10;10.05;;;4.40;;
19599;SDS011;9947;57.722;12.012;2022-08-03T14:08:14;9.43;;;3.80;;
19599;SDS011;9947;57.722;12.012;2022-08-03T14:10:44;11.88;;;4.45;;
19599;SDS011;9947;57.722;12.012;2022-08-03T14:13:12;10.13;;;3.85;;
19599;SDS011;9947;57.722;12.012;2022-08-03T14:15:54;10.95;;;3.78;;
19599;SDS011;9947;57.722;12.012;2022-08-03T14:18:21;13.00;;;4.78;;
19599;SDS011;9947;57.722;12.012;2022-08-03T14:21:08;12.32;;;3.42;;
19599;SDS011;9947;57.722;12.012;2022-08-03T14:23:40;9.50;;;3.97;;
19599;SDS011;9947;57.722;12.012;2022-08-03T14:26:17;11.07;;;3.90;;
19599;SDS011;9947;57.722;12.012;2022-08-03T14:28:51;13.13;;;3.95;;
19599;SDS011;9947;57.722;12.012;2022-08-03T14:31:23;14.13;;;3.90;;
19599;SDS011;9947;57.722;12.012;2022-08-03T14:33:56;12.18;;;3.63;;
19599;SDS011;9947;57.722;12.012;2022-08-03T14:36:29;14.48;;;3.83;;
19599;SDS011;9947;57.722;12.012;2022-08-03T14:38:57;10.80;;;3.25;;
19599;SDS011;9947;57.722;12.012;2022-08-03T14:41:24;10.55;;;3.60;;
19599;SDS011;9947;57.722;12.012;2022-08-03T14:43:51;10.90;;;3.58;;
19599;SDS011;9947;57.722;12.012;2022-08-03T14:46:22;8.23;;;3.17;;
19599;SDS011;9947;57.722;12.012;2022-08-03T14:48:51;12.82;;;3.80;;
19599;SDS011;9947;57.722;12.012;2022-08-03T14:51:18;6.80;;;3.40;;
19599;SDS011;9947;57.722;12.012;2022-08-03T14:53:45;8.18;;;3.58;;
19599;SDS011;9947;57.722;12.012;2022-08-03T14:56:15;12.48;;;3.22;;
19599;SDS011;9947;57.722;12.012;2022-08-03T14:58:42;7.57;;;2.90;;
19599;SDS011;9947;57.722;12.012;2022-08-03T15:01:09;13.07;;;3.80;;
19599;SDS011;9947;57.722;12.012;2022-08-03T15:03:37;10.40;;;3.58;;
19599;SDS011;9947;57.722;12.012;2022-08-03T15:06:05;15.48;;;3.63;;
19599;SDS011;9947;57.722;12.012;2022-08-03T15:08:33;14.65;;;3.60;;
19599;SDS011;9947;57.722;12.012;2022-08-03T15:11:06;8.13;;;3.35;;
19599;SDS011;9947;57.722;12.012;2022-08-03T15:13:47;13.10;;;3.83;;
19599;SDS011;9947;57.722;12.012;2022-08-03T15:19:06;7.03;;;3.08;;
19599;SDS011;9947;57.722;12.012;2022-08-03T15:21:33;9.73;;;3.42;;
19599;SDS011;9947;57.722;12.012;2022-08-03T15:24:00;9.70;;;3.40;;
19599;SDS011;9947;57.722;12.012;2022-08-03T15:26:26;8.68;;;3.58;;
19599;SDS011;9947;57.722;12.012;2022-08-03T15:28:53;9.07;;;3.20;;
19599;SDS011;9947;57.722;12.012;2022-08-03T15:31:20;14.77;;;3.20;;
19599;SDS011;9947;57.722;12.012;2022-08-03T15:33:48;14.90;;;3.45;;
19599;SDS011;9947;57.722;12.012;2022-08-03T15:36:19;11.60;;;3.58;;
19599;SDS011;9947;57.722;12.012;2022-08-03T15:38:46;7.50;;;2.85;;
19599;SDS011;9947;57.722;12.012;2022-08-03T15:41:13;9.25;;;3.15;;
19599;SDS011;9947;57.722;12.012;2022-08-03T15:43:40;10.35;;;3.53;;
19599;SDS011;9947;57.722;12.012;2022-08-03T15:46:08;9.00;;;3.15;;
19599;SDS011;9947;57.722;12.012;2022-08-03T15:48:36;13.75;;;3.70;;
19599;SDS011;9947;57.722;12.012;2022-08-03T15:51:03;10.43;;;3.20;;
19599;SDS011;9947;57.722;12.012;2022-08-03T15:53:31;11.73;;;3.53;;
19599;SDS011;9947;57.722;12.012;2022-08-03T15:55:59;6.13;;;3.08;;
19599;SDS011;9947;57.722;12.012;2022-08-03T15:58:25;9.35;;;3.38;;
19599;SDS011;9947;57.722;12.012;2022-08-03T16:00:54;14.93;;;3.75;;
19599;SDS011;9947;57.722;12.012;2022-08-03T16:03:21;9.63;;;3.58;;
19599;SDS011;9947;57.722;12.012;2022-08-03T16:05:49;11.38;;;3.30;;
19599;SDS011;9947;57.722;12.012;2022-08-03T16:08:18;11.80;;;3.47;;
19599;SDS011;9947;57.722;12.012;2022-08-03T16:10:47;13.13;;;3.58;;
19599;SDS011;9947;57.722;12.012;2022-08-03T16:13:14;11.65;;;4.05;;
19599;SDS011;9947;57.722;12.012;2022-08-03T16:15:40;15.15;;;3.75;;
19599;SDS011;9947;57.722;12.012;2022-08-03T16:18:08;12.27;;;3.80;;
19599;SDS011;9947;57.722;12.012;2022-08-03T16:20:37;7.90;;;3.13;;
19599;SDS011;9947;57.722;12.012;2022-08-03T16:23:03;10.35;;;3.47;;
19599;SDS011;9947;57.722;12.012;2022-08-03T16:25:31;12.18;;;3.40;;
19599;SDS011;9947;57.722;12.012;2022-08-03T16:27:59;9.80;;;3.63;;
19599;SDS011;9947;57.722;12.012;2022-08-03T16:30:26;14.63;;;3.97;;
19599;SDS011;9947;57.722;12.012;2022-08-03T16:32:56;12.00;;;3.78;;
19599;SDS011;9947;57.722;12.012;2022-08-03T16:35:23;13.68;;;3.55;;
19599;SDS011;9947;57.722;12.012;2022-08-03T16:37:50;12.75;;;4.05;;
19599;SDS011;9947;57.722;12.012;2022-08-03T16:40:16;12.63;;;3.80;;
19599;SDS011;9947;57.722;12.012;2022-08-03T16:42:44;14.07;;;3.90;;
19599;SDS011;9947;57.722;12.012;2022-08-03T16:45:12;9.98;;;3.92;;
19599;SDS011;9947;57.722;12.012;2022-08-03T16:47:39;8.95;;;3.15;;
19599;SDS011;9947;57.722;12.012;2022-08-03T16:50:06;15.00;;;3.60;;
19599;SDS011;9947;57.722;12.012;2022-08-03T16:52:33;15.57;;;3.60;;
19599;SDS011;9947;57.722;12.012;2022-08-03T16:55:04;16.00;;;3.88;;
19599;SDS011;9947;57.722;12.012;2022-08-03T16:57:38;18.05;;;3.75;;
19599;SDS011;9947;57.722;12.012;2022-08-03T17:00:05;9.80;;;3.55;;
19599;SDS011;9947;57.722;12.012;2022-08-03T17:02:34;12.88;;;3.65;;
19599;SDS011;9947;57.722;12.012;2022-08-03T17:05:02;9.65;;;3.40;;
19599;SDS011;9947;57.722;12.012;2022-08-03T17:07:30;9.38;;;3.30;;
19599;SDS011;9947;57.722;12.012;2022-08-03T17:09:56;15.27;;;3.58;;
19599;SDS011;9947;57.722;12.012;2022-08-03T17:12:24;12.80;;;3.55;;
19599;SDS011;9947;57.722;12.012;2022-08-03T17:14:51;11.75;;;3.13;;
19599;SDS011;9947;57.722;12.012;2022-08-03T17:17:20;14.75;;;3.65;;
19599;SDS011;9947;57.722;12.012;2022-08-03T17:19:51;15.52;;;3.90;;
19599;SDS011;9947;57.722;12.012;2022-08-03T17:22:19;13.52;;;4.28;;
19599;SDS011;9947;57.722;12.012;2022-08-03T17:24:53;9.10;;;3.40;;
19599;SDS011;9947;57.722;12.012;2022-08-03T17:27:22;14.18;;;3.45;;
19599;SDS011;9947;57.722;12.012;2022-08-03T17:29:52;11.35;;;3.65;;
19599;SDS011;9947;57.722;12.012;2022-08-03T17:32:24;12.70;;;3.70;;
19599;SDS011;9947;57.722;12.012;2022-08-03T17:34:53;10.73;;;3.58;;
19599;SDS011;9947;57.722;12.012;2022-08-03T17:37:21;11.32;;;3.38;;
19599;SDS011;9947;57.722;12.012;2022-08-03T17:39:47;11.10;;;3.60;;
19599;SDS011;9947;57.722;12.012;2022-08-03T17:42:19;13.90;;;3.28;;
19599;SDS011;9947;57.722;12.012;2022-08-03T17:44:46;15.38;;;3.88;;
19599;SDS011;9947;57.722;12.012;2022-08-03T17:47:14;14.65;;;3.25;;
19599;SDS011;9947;57.722;12.012;2022-08-03T17:49:42;14.82;;;2.97;;
19599;SDS011;9947;57.722;12.012;2022-08-03T17:52:11;14.30;;;3.17;;
19599;SDS011;9947;57.722;12.012;2022-08-03T17:54:54;9.35;;;3.17;;
19599;SDS011;9947;57.722;12.012;2022-08-03T17:57:29;14.70;;;3.35;;
19599;SDS011;9947;57.722;12.012;2022-08-03T18:00:04;7.90;;;2.70;;
19599;SDS011;9947;57.722;12.012;2022-08-03T18:02:49;10.23;;;3.03;;
19599;SDS011;9947;57.722;12.012;2022-08-03T18:05:43;10.38;;;3.28;;
19599;SDS011;9947;57.722;12.012;2022-08-03T18:08:17;12.40;;;3.17;;